createdAt,value
2018-09-06T00:00:51.327Z,8.57
2018-09-06T00:03:28.634Z,8.47
2018-09-06T00:06:06.357Z,7.80
2018-09-06T00:08:43.596Z,9.37
2018-09-06T00:11:21.371Z,10.93
2018-09-06T00:13:58.580Z,10.17
2018-09-06T00:16:36.564Z,8.50
2018-09-06T00:19:13.726Z,10.40
2018-09-06T00:21:51.560Z,10.53
2018-09-06T00:24:28.707Z,8.67
2018-09-06T00:27:06.270Z,8.80
2018-09-06T00:29:43.908Z,7.93
2018-09-06T00:32:21.996Z,7.60
2018-09-06T00:34:59.138Z,8.27
2018-09-06T00:37:37.022Z,9.23
2018-09-06T00:40:14.858Z,7.53
2018-09-06T00:42:51.931Z,8.17
2018-09-06T00:45:29.265Z,9.83
2018-09-06T00:48:06.157Z,9.00
2018-09-06T00:50:43.329Z,12.20
2018-09-06T00:53:20.468Z,7.83
2018-09-06T00:55:57.676Z,11.17
2018-09-06T00:58:34.592Z,10.43
2018-09-06T01:01:11.491Z,9.87
2018-09-06T01:03:49.241Z,10.33
2018-09-06T01:06:26.752Z,11.33
2018-09-06T01:09:03.988Z,12.90
2018-09-06T01:11:41.820Z,9.23
2018-09-06T01:14:18.690Z,11.77
2018-09-06T01:16:55.991Z,9.83
2018-09-06T01:19:33.310Z,10.77
2018-09-06T01:22:11.212Z,10.70
2018-09-06T01:24:48.324Z,10.40
2018-09-06T01:27:26.796Z,11.50
2018-09-06T01:30:03.912Z,12.10
2018-09-06T01:32:40.952Z,10.80
2018-09-06T01:35:18.599Z,11.43
2018-09-06T01:37:55.578Z,14.13
2018-09-06T01:40:33.371Z,8.80
2018-09-06T01:43:10.646Z,9.73
2018-09-06T01:45:48.423Z,11.00
2018-09-06T01:48:25.434Z,11.07
2018-09-06T01:51:02.742Z,11.03
2018-09-06T01:53:39.672Z,10.10
2018-09-06T01:56:17.519Z,8.47
2018-09-06T01:58:54.953Z,8.80
2018-09-06T02:01:32.937Z,11.23
2018-09-06T02:04:11.003Z,14.50
2018-09-06T02:06:48.099Z,9.83
2018-09-06T02:09:25.282Z,10.27
2018-09-06T02:12:03.396Z,11.27
2018-09-06T02:14:40.016Z,10.03
2018-09-06T02:17:17.078Z,9.93
2018-09-06T02:19:54.135Z,9.40
2018-09-06T02:22:32.177Z,8.27
2018-09-06T02:25:09.205Z,9.73
2018-09-06T02:27:46.077Z,11.03
2018-09-06T02:30:23.108Z,10.00
2018-09-06T02:33:00.187Z,10.47
2018-09-06T02:35:37.415Z,9.70
2018-09-06T02:38:14.409Z,10.57
2018-09-06T02:40:51.575Z,10.07
2018-09-06T02:43:28.534Z,10.50
2018-09-06T02:46:05.578Z,12.10
2018-09-06T02:48:43.575Z,10.53
2018-09-06T02:51:21.783Z,8.73
2018-09-06T02:54:00.314Z,14.80
2018-09-06T02:56:37.391Z,9.00
2018-09-06T02:59:15.651Z,8.97
2018-09-06T03:01:52.609Z,13.53
2018-09-06T03:04:29.861Z,13.30
2018-09-06T03:07:06.806Z,10.67
2018-09-06T03:09:43.851Z,12.23
2018-09-06T03:12:21.146Z,9.50
2018-09-06T03:14:58.757Z,10.13
2018-09-06T03:17:35.989Z,9.80
2018-09-06T03:20:13.000Z,14.43
2018-09-06T03:22:50.181Z,13.23
2018-09-06T03:25:27.070Z,11.70
2018-09-06T03:28:04.661Z,9.63
2018-09-06T03:30:42.132Z,12.93
2018-09-06T03:33:19.176Z,11.83
2018-09-06T03:35:56.374Z,12.73
2018-09-06T03:38:33.603Z,11.37
2018-09-06T03:41:11.180Z,10.37
2018-09-06T03:43:48.210Z,12.03
2018-09-06T03:46:25.346Z,10.30
2018-09-06T03:49:02.188Z,10.83
2018-09-06T03:51:39.358Z,11.23
2018-09-06T03:54:16.414Z,12.00
2018-09-06T03:56:53.888Z,16.80
2018-09-06T03:59:31.633Z,11.43
2018-09-06T04:02:08.712Z,11.37
2018-09-06T04:04:45.882Z,15.63
2018-09-06T04:07:23.560Z,11.23
2018-09-06T04:10:02.218Z,12.13
2018-09-06T04:12:39.624Z,13.60
2018-09-06T04:15:15.971Z,9.17
2018-09-06T04:17:52.400Z,11.37
2018-09-06T04:20:28.814Z,12.80
2018-09-06T04:23:05.340Z,10.90
2018-09-06T04:25:41.702Z,14.77
2018-09-06T04:28:18.185Z,10.13
2018-09-06T04:30:54.669Z,11.83
2018-09-06T04:33:31.158Z,11.63
2018-09-06T04:36:07.736Z,10.80
2018-09-06T04:38:44.168Z,14.17
2018-09-06T04:41:20.658Z,10.60
2018-09-06T04:43:57.223Z,14.87
2018-09-06T04:46:33.993Z,10.77
2018-09-06T04:49:10.345Z,9.70
2018-09-06T04:51:48.378Z,10.27
2018-09-06T04:54:24.740Z,15.33
2018-09-06T04:57:01.229Z,10.83
2018-09-06T04:59:37.647Z,11.90
2018-09-06T05:02:14.105Z,11.00
2018-09-06T05:04:50.961Z,13.30
2018-09-06T05:07:27.399Z,11.37
2018-09-06T05:10:03.824Z,14.20
2018-09-06T05:12:40.325Z,11.90
2018-09-06T05:15:16.697Z,13.90
2018-09-06T05:17:53.060Z,12.83
2018-09-06T05:20:29.581Z,15.97
2018-09-06T05:23:06.418Z,13.87
2018-09-06T05:25:43.345Z,14.00
2018-09-06T05:28:19.717Z,16.00
2018-09-06T05:30:56.062Z,11.90
2018-09-06T05:33:32.564Z,18.30
2018-09-06T05:36:08.911Z,12.53
2018-09-06T05:38:45.321Z,13.33
2018-09-06T05:41:21.772Z,13.10
2018-09-06T05:43:58.172Z,13.73
2018-09-06T05:46:34.652Z,18.10
2018-09-06T05:49:11.057Z,16.23
2018-09-06T05:51:47.674Z,15.47
2018-09-06T05:54:24.066Z,16.10
2018-09-06T05:57:00.668Z,18.63
2018-09-06T05:59:37.136Z,15.47
2018-09-06T06:02:13.549Z,16.17
2018-09-06T06:04:50.076Z,16.70
2018-09-06T06:08:39.833Z,20.77
2018-09-06T06:11:16.214Z,11.97
2018-09-06T06:13:52.852Z,13.30
2018-09-06T06:16:29.157Z,14.43
2018-09-06T06:19:05.542Z,16.10
2018-09-06T06:21:41.937Z,10.90
2018-09-06T06:24:18.431Z,12.80
2018-09-06T06:26:55.308Z,12.00
2018-09-06T06:29:31.787Z,15.97
2018-09-06T06:32:08.227Z,10.30
2018-09-06T06:34:44.820Z,15.67
2018-09-06T06:37:21.215Z,12.67
2018-09-06T06:39:58.550Z,14.73
2018-09-06T06:42:34.787Z,12.67
2018-09-06T06:45:11.175Z,15.53
2018-09-06T06:47:47.716Z,12.60
2018-09-06T06:50:24.104Z,11.47
2018-09-06T06:53:00.397Z,12.10
2018-09-06T06:55:36.889Z,11.80
2018-09-06T06:58:13.356Z,11.30
2018-09-06T07:00:49.845Z,14.00
2018-09-06T07:03:26.287Z,12.00
2018-09-06T07:06:02.598Z,12.90
2018-09-06T07:08:39.063Z,10.57
2018-09-06T07:11:15.520Z,12.90
2018-09-06T07:13:51.936Z,11.97
2018-09-06T07:16:28.367Z,12.33
2018-09-06T07:19:04.864Z,14.73
2018-09-06T07:21:41.240Z,13.20
2018-09-06T07:24:17.633Z,13.97
2018-09-06T07:26:54.015Z,12.30
2018-09-06T07:29:30.446Z,16.67
2018-09-06T07:32:06.991Z,14.63
2018-09-06T07:34:43.480Z,12.30
2018-09-06T07:37:19.914Z,11.67
2018-09-06T07:39:56.489Z,12.83
2018-09-06T07:42:32.967Z,12.73
2018-09-06T07:45:09.467Z,10.30
2018-09-06T07:47:45.939Z,12.93
2018-09-06T07:50:22.811Z,11.17
2018-09-06T07:52:59.150Z,13.50
2018-09-06T07:55:37.557Z,20.07
2018-09-06T07:58:13.999Z,12.27
2018-09-06T08:00:50.528Z,10.77
2018-09-06T08:03:27.082Z,11.70
2018-09-06T08:06:03.511Z,11.73
2018-09-06T08:08:39.886Z,17.37
2018-09-06T08:11:16.951Z,10.67
2018-09-06T08:13:53.784Z,12.37
2018-09-06T08:16:30.220Z,14.93
2018-09-06T08:19:06.699Z,11.17
2018-09-06T08:21:43.655Z,15.10
2018-09-06T08:24:20.213Z,12.30
2018-09-06T08:26:56.633Z,12.10
2018-09-06T08:29:33.159Z,12.50
2018-09-06T08:32:09.571Z,12.70
2018-09-06T08:34:46.074Z,14.23
2018-09-06T08:37:22.489Z,11.80
2018-09-06T08:39:58.793Z,11.63
2018-09-06T08:42:35.267Z,13.63
2018-09-06T08:45:11.697Z,12.80
2018-09-06T08:47:47.992Z,12.43
2018-09-06T08:50:25.091Z,13.50
2018-09-06T08:53:01.929Z,13.30
2018-09-06T08:55:39.410Z,14.03
2018-09-06T08:58:15.679Z,13.47
2018-09-06T09:00:57.347Z,12.80
2018-09-06T09:03:33.962Z,12.93
2018-09-06T09:06:10.309Z,13.30
2018-09-06T09:08:47.033Z,14.13
2018-09-06T09:11:23.738Z,13.57
2018-09-06T09:14:00.139Z,16.13
2018-09-06T09:16:36.959Z,13.00
2018-09-06T09:19:13.459Z,14.27
2018-09-06T09:21:49.923Z,13.47
2018-09-06T09:24:26.372Z,12.50
2018-09-06T09:29:43.131Z,14.33
2018-09-06T09:32:19.708Z,13.60
2018-09-06T09:34:56.204Z,13.47
2018-09-06T09:37:32.757Z,12.13
2018-09-06T09:40:09.241Z,12.30
2018-09-06T09:42:45.857Z,13.03
2018-09-06T09:45:22.238Z,18.10
2018-09-06T09:47:58.762Z,12.90
2018-09-06T09:53:11.332Z,15.23
2018-09-06T09:55:47.741Z,15.50
2018-09-06T09:58:24.377Z,14.70
2018-09-06T10:01:00.916Z,15.77
2018-09-06T10:03:42.691Z,19.50
2018-09-06T10:06:24.981Z,15.87
2018-09-06T10:09:06.378Z,14.63
2018-09-06T10:11:45.515Z,15.13
2018-09-06T10:14:22.012Z,15.30
2018-09-06T10:16:59.152Z,14.17
2018-09-06T10:19:35.593Z,13.80
2018-09-06T10:22:12.278Z,13.40
2018-09-06T10:24:48.636Z,13.47
2018-09-06T10:27:24.999Z,16.03
2018-09-06T10:30:01.348Z,13.10
2018-09-06T10:32:37.899Z,15.80
2018-09-06T10:35:14.307Z,15.73
2018-09-06T10:37:50.866Z,18.70
2018-09-06T10:40:27.459Z,16.93
2018-09-06T10:43:03.887Z,13.90
2018-09-06T10:45:41.399Z,36.03
2018-09-06T10:48:17.897Z,26.57
2018-09-06T10:50:54.184Z,19.13
2018-09-06T10:53:30.685Z,13.80
2018-09-06T10:56:07.286Z,14.03
2018-09-06T10:58:43.597Z,13.63
2018-09-06T11:01:24.235Z,18.10
2018-09-06T11:04:01.135Z,13.17
2018-09-06T11:06:37.700Z,17.23
2018-09-06T11:09:14.475Z,13.33
2018-09-06T11:11:52.670Z,11.53
2018-09-06T11:14:29.148Z,12.73
2018-09-06T11:17:05.650Z,13.70
2018-09-06T11:19:42.223Z,9.63
2018-09-06T11:22:18.881Z,12.00
2018-09-06T11:24:55.096Z,14.07
2018-09-06T11:27:31.550Z,9.77
2018-09-06T11:30:07.896Z,9.97
2018-09-06T11:32:44.223Z,9.77
2018-09-06T11:35:21.088Z,12.37
2018-09-06T11:37:57.595Z,10.70
2018-09-06T11:40:34.594Z,10.57
2018-09-06T11:43:12.047Z,11.70
2018-09-06T11:45:48.808Z,11.10
2018-09-06T11:48:25.244Z,10.33
2018-09-06T11:51:01.842Z,9.33
2018-09-06T11:53:38.309Z,10.57
2018-09-06T11:56:15.236Z,11.30
2018-09-06T11:58:51.606Z,9.00
2018-09-06T12:01:28.183Z,9.53
2018-09-06T12:04:04.601Z,23.20
2018-09-06T12:06:40.903Z,7.63
2018-09-06T12:09:17.615Z,8.70
2018-09-06T12:11:53.983Z,7.00
2018-09-06T12:14:30.310Z,7.67
2018-09-06T12:17:06.849Z,9.90
2018-09-06T12:19:43.317Z,6.80
2018-09-06T12:22:19.780Z,8.27
2018-09-06T12:24:56.260Z,5.63
2018-09-06T12:27:32.630Z,6.00
2018-09-06T12:30:09.087Z,5.50
2018-09-06T12:32:45.503Z,5.70
2018-09-06T12:35:22.137Z,7.10
2018-09-06T12:37:58.625Z,7.03
2018-09-06T12:40:35.913Z,7.10
2018-09-06T12:43:12.323Z,7.60
2018-09-06T12:45:48.880Z,6.47
2018-09-06T12:48:25.291Z,6.03
2018-09-06T12:51:01.772Z,6.30
2018-09-06T12:53:38.136Z,6.80
2018-09-06T12:56:14.566Z,6.13
2018-09-06T12:58:51.166Z,5.50
2018-09-06T13:01:27.605Z,6.30
2018-09-06T13:04:04.097Z,6.07
2018-09-06T13:06:40.463Z,5.57
2018-09-06T13:09:16.962Z,4.80
2018-09-06T13:11:53.518Z,5.70
2018-09-06T13:14:30.090Z,6.37
2018-09-06T13:17:06.641Z,4.20
2018-09-06T13:19:43.059Z,5.33
2018-09-06T13:22:19.557Z,6.60
2018-09-06T13:24:56.071Z,5.57
2018-09-06T13:27:32.410Z,5.00
2018-09-06T13:30:08.787Z,4.87
2018-09-06T13:32:45.302Z,6.10
2018-09-06T13:35:22.039Z,7.07
2018-09-06T13:37:58.310Z,5.33
2018-09-06T13:40:34.836Z,5.77
2018-09-06T13:43:11.262Z,9.33
2018-09-06T13:45:47.874Z,6.07
2018-09-06T13:48:24.182Z,6.70
2018-09-06T13:51:00.559Z,5.40
2018-09-06T13:53:37.003Z,6.73
2018-09-06T13:56:13.479Z,8.30
2018-09-06T13:58:49.856Z,5.70
2018-09-06T14:01:26.286Z,7.30
2018-09-06T14:04:02.574Z,6.10
2018-09-06T14:06:38.975Z,5.30
2018-09-06T14:09:15.446Z,5.93
2018-09-06T14:11:51.756Z,6.10
2018-09-06T14:14:28.234Z,6.50
2018-09-06T14:17:04.667Z,6.97
2018-09-06T14:19:41.020Z,6.13
2018-09-06T14:22:17.322Z,5.20
2018-09-06T14:24:53.738Z,5.90
2018-09-06T14:27:30.043Z,6.50
2018-09-06T14:30:06.644Z,8.97
2018-09-06T14:32:42.923Z,6.33
2018-09-06T14:35:19.402Z,6.40
2018-09-06T14:37:55.902Z,11.23
2018-09-06T14:40:32.369Z,8.43
2018-09-06T14:43:08.806Z,10.73
2018-09-06T14:45:45.191Z,13.00
2018-09-06T14:48:21.560Z,11.07
2018-09-06T14:50:58.315Z,9.67
2018-09-06T14:53:34.722Z,12.43
2018-09-06T14:56:11.195Z,11.00
2018-09-06T14:58:47.664Z,11.00
2018-09-06T15:01:24.153Z,12.37
2018-09-06T15:04:01.597Z,9.60
2018-09-06T15:06:38.048Z,12.37
2018-09-06T15:09:14.454Z,8.70
2018-09-06T15:11:50.890Z,9.53
2018-09-06T15:14:27.271Z,11.87
2018-09-06T15:17:03.568Z,9.57
2018-09-06T15:19:39.902Z,10.13
2018-09-06T15:22:16.329Z,9.30
2018-09-06T15:24:52.854Z,10.47
2018-09-06T15:27:29.647Z,9.97
2018-09-06T15:30:06.698Z,10.43
2018-09-06T15:32:43.204Z,10.17
2018-09-06T15:35:19.542Z,9.67
2018-09-06T15:37:55.992Z,10.07
2018-09-06T15:40:32.405Z,10.13
2018-09-06T15:43:09.366Z,10.90
2018-09-06T15:45:45.836Z,9.47
2018-09-06T15:48:22.201Z,9.50
2018-09-06T15:50:58.585Z,10.60
2018-09-06T15:53:34.917Z,9.70
2018-09-06T15:56:11.466Z,9.93
2018-09-06T15:58:47.897Z,10.27
2018-09-06T16:01:24.419Z,9.93
2018-09-06T16:04:00.940Z,10.27
2018-09-06T16:06:37.337Z,11.70
2018-09-06T16:09:13.681Z,11.10
2018-09-06T16:11:50.090Z,10.30
2018-09-06T16:14:26.632Z,10.33
2018-09-06T16:17:03.038Z,11.50
2018-09-06T16:19:39.456Z,12.93
2018-09-06T16:22:16.196Z,10.80
2018-09-06T16:24:52.693Z,9.13
2018-09-06T16:27:29.174Z,12.53
2018-09-06T16:30:06.386Z,9.67
2018-09-06T16:32:42.705Z,10.30
2018-09-06T16:35:18.977Z,9.53
2018-09-06T16:37:55.481Z,9.80
2018-09-06T16:40:31.874Z,11.63
2018-09-06T16:43:08.290Z,12.47
2018-09-06T16:45:44.866Z,13.10
2018-09-06T16:48:21.265Z,12.03
2018-09-06T16:50:58.095Z,11.77
2018-09-06T16:53:34.656Z,12.10
2018-09-06T16:56:10.977Z,12.27
2018-09-06T16:58:47.526Z,11.10
2018-09-06T17:01:24.791Z,15.30
2018-09-06T17:04:01.180Z,11.63
2018-09-06T17:06:37.715Z,13.70
2018-09-06T17:09:14.139Z,11.20
2018-09-06T17:11:50.447Z,12.10
2018-09-06T17:14:26.915Z,14.67
2018-09-06T17:17:04.072Z,11.30
2018-09-06T17:19:40.563Z,10.30
2018-09-06T17:22:16.896Z,10.20
2018-09-06T17:24:56.882Z,12.70
2018-09-06T17:27:33.348Z,11.40
2018-09-06T17:30:09.798Z,11.00
2018-09-06T17:32:46.254Z,11.00
2018-09-06T17:35:22.728Z,12.80
2018-09-06T17:37:59.103Z,10.50
2018-09-06T17:40:35.629Z,10.90
2018-09-06T17:43:12.053Z,10.30
2018-09-06T17:45:48.515Z,11.73
2018-09-06T17:48:24.910Z,8.03
2018-09-06T17:51:01.339Z,8.00
2018-09-06T17:53:37.663Z,8.73
2018-09-06T17:56:13.977Z,14.10
2018-09-06T17:58:50.398Z,8.33
2018-09-06T18:01:34.843Z,7.97
2018-09-06T18:04:11.023Z,9.73
2018-09-06T18:06:47.451Z,10.93
2018-09-06T18:09:23.891Z,9.77
2018-09-06T18:12:01.006Z,10.97
2018-09-06T18:14:40.852Z,9.27
2018-09-06T18:17:18.747Z,9.00
2018-09-06T18:19:55.156Z,8.77
2018-09-06T18:22:31.472Z,10.13
2018-09-06T18:25:08.002Z,8.20
2018-09-06T18:27:44.401Z,8.63
2018-09-06T18:30:21.226Z,9.60
2018-09-06T18:32:57.663Z,8.80
2018-09-06T18:35:34.999Z,8.67
2018-09-06T18:38:11.419Z,10.73
2018-09-06T18:40:47.700Z,8.60
2018-09-06T18:43:24.232Z,10.70
2018-09-06T18:46:00.868Z,10.67
2018-09-06T18:48:37.341Z,18.20
2018-09-06T18:51:14.077Z,10.23
2018-09-06T18:53:50.595Z,11.33
2018-09-06T18:56:27.266Z,10.00
2018-09-06T18:59:03.774Z,9.50
2018-09-06T19:01:40.697Z,11.25
2018-09-06T19:04:18.195Z,11.17
2018-09-06T19:06:54.537Z,13.07
2018-09-06T19:09:31.141Z,10.63
2018-09-06T19:12:07.730Z,11.80
2018-09-06T19:14:44.106Z,11.17
2018-09-06T19:17:20.538Z,10.60
2018-09-06T19:19:57.583Z,11.40
2018-09-06T19:22:33.890Z,11.10
2018-09-06T19:25:10.406Z,13.90
2018-09-06T19:27:46.785Z,11.23
2018-09-06T19:30:23.777Z,11.77
2018-09-06T19:33:00.800Z,14.57
2018-09-06T19:35:37.176Z,12.30
2018-09-06T19:38:13.883Z,13.03
2018-09-06T19:40:50.355Z,13.00
2018-09-06T19:43:26.758Z,13.37
2018-09-06T19:46:03.230Z,14.57
2018-09-06T19:48:39.793Z,10.90
2018-09-06T19:51:16.294Z,11.53
2018-09-06T19:53:53.140Z,12.07
2018-09-06T19:56:29.736Z,10.90
2018-09-06T19:59:06.021Z,11.60
2018-09-06T20:01:42.592Z,11.60
2018-09-06T20:04:19.044Z,12.27
2018-09-06T20:06:55.551Z,12.50
2018-09-06T20:09:32.541Z,15.20
2018-09-06T20:12:09.563Z,18.53
2018-09-06T20:14:45.780Z,26.67
2018-09-06T20:17:22.261Z,23.20
2018-09-06T20:19:59.579Z,16.27
2018-09-06T20:22:35.975Z,12.90
2018-09-06T20:25:12.375Z,14.40
2018-09-06T20:27:48.848Z,14.90
2018-09-06T20:30:25.315Z,13.70
2018-09-06T20:33:01.817Z,18.13
2018-09-06T20:35:38.155Z,13.93
2018-09-06T20:38:15.623Z,16.83
2018-09-06T20:40:52.141Z,15.67
2018-09-06T20:43:28.524Z,19.90
2018-09-06T20:46:05.020Z,16.30
2018-09-06T20:48:41.511Z,16.73
2018-09-06T20:51:18.030Z,19.17
2018-09-06T20:53:54.946Z,22.63
2018-09-06T20:56:31.534Z,22.77
2018-09-06T20:59:08.015Z,21.40
2018-09-06T21:01:44.404Z,19.70
2018-09-06T21:04:23.022Z,21.00
2018-09-06T21:06:59.501Z,24.20
2018-09-06T21:09:35.863Z,25.87
2018-09-06T21:12:12.373Z,22.57
2018-09-06T21:14:48.856Z,26.77
2018-09-06T21:17:25.311Z,25.67
2018-09-06T21:20:01.792Z,25.37
2018-09-06T21:22:38.252Z,25.90
2018-09-06T21:25:14.663Z,24.30
2018-09-06T21:27:51.172Z,21.27
2018-09-06T21:30:28.630Z,23.70
2018-09-06T21:33:05.144Z,27.00
2018-09-06T21:35:41.621Z,30.40
2018-09-06T21:38:18.007Z,31.47
2018-09-06T21:40:54.519Z,25.90
2018-09-06T21:43:30.972Z,30.10
2018-09-06T21:46:07.488Z,33.87
2018-09-06T21:48:44.027Z,26.80
2018-09-06T21:51:20.530Z,29.77
2018-09-06T21:53:56.845Z,30.70
2018-09-06T21:56:33.339Z,32.27
2018-09-06T21:59:09.802Z,29.83
2018-09-06T22:01:46.518Z,33.27
2018-09-06T22:04:22.802Z,28.80
2018-09-06T22:06:59.291Z,38.67
2018-09-06T22:09:35.567Z,31.50
2018-09-06T22:12:16.862Z,29.13
2018-09-06T22:14:53.291Z,28.83
2018-09-06T22:17:29.819Z,31.83
2018-09-06T22:20:06.589Z,29.70
2018-09-06T22:22:43.190Z,28.33
2018-09-06T22:25:19.698Z,30.87
2018-09-06T22:27:56.160Z,29.83
2018-09-06T22:30:32.832Z,30.77
2018-09-06T22:33:09.184Z,30.83
2018-09-06T22:35:45.706Z,31.57
2018-09-06T22:38:22.174Z,36.53
2018-09-06T22:40:58.453Z,35.30
2018-09-06T22:43:34.967Z,31.83
2018-09-06T22:46:11.462Z,31.57
2018-09-06T22:48:47.909Z,28.37
2018-09-06T22:51:24.422Z,30.47
2018-09-06T22:54:00.743Z,30.23
2018-09-06T22:56:37.142Z,28.17
2018-09-06T22:59:13.579Z,31.17
2018-09-06T23:01:50.018Z,27.93
2018-09-06T23:04:26.482Z,29.63
2018-09-06T23:07:03.684Z,36.13
2018-09-06T23:09:40.138Z,32.90
2018-09-06T23:12:16.677Z,30.20
2018-09-06T23:14:53.392Z,33.33
2018-09-06T23:17:29.762Z,34.90
2018-09-06T23:20:06.240Z,36.00
2018-09-06T23:22:42.698Z,33.83
2018-09-06T23:25:19.187Z,36.47
2018-09-06T23:27:55.617Z,35.60
2018-09-06T23:30:32.099Z,33.70
2018-09-06T23:33:08.790Z,34.10
2018-09-06T23:35:45.658Z,33.00
2018-09-06T23:38:22.122Z,31.23
2018-09-06T23:40:58.578Z,35.57
2018-09-06T23:43:35.144Z,32.20
2018-09-06T23:46:11.387Z,32.63
2018-09-06T23:48:47.930Z,28.20
2018-09-06T23:51:24.229Z,30.53
2018-09-06T23:54:00.722Z,29.57
2018-09-06T23:56:37.185Z,30.93
2018-09-06T23:59:13.694Z,27.03
